Time;durP1;ratioP1;P1;durP2;ratioP2;P2;SDS_P1;SDS_P2;PMS_P1;PMS_P2;Temp;Humidity;BMP_temperature;BMP_pressure;BME280_temperature;BME280_humidity;BME280_pressure;Samples;Min_cycle;Max_cycle;Signal;HPM_P1;HPM_P2
2022/11/24 00:00:33;;;;;;;6.93;1.15;;;20.70;52.30;;;;;;5070496;28;20051;-51
2022/11/24 00:03:00;;;;;;;6.57;1.75;;;20.70;52.30;;;;;;5070623;28;20040;-51
2022/11/24 00:05:27;;;;;;;6.88;0.95;;;20.70;52.40;;;;;;5069983;28;20126;-55
2022/11/24 00:07:54;;;;;;;3.47;0.73;;;20.70;52.40;;;;;;5077697;28;20028;-49
2022/11/24 00:10:21;;;;;;;5.13;0.65;;;20.70;52.50;;;;;;5090510;28;20044;-54
2022/11/24 00:12:48;;;;;;;3.78;0.90;;;20.70;52.60;;;;;;5090744;28;20036;-54
2022/11/24 00:15:17;;;;;;;9.88;1.27;;;20.70;52.60;;;;;;5076894;28;20051;-53
2022/11/24 00:17:44;;;;;;;4.05;0.93;;;20.60;52.50;;;;;;5051883;28;20118;-51
2022/11/24 00:20:11;;;;;;;9.05;0.68;;;20.60;52.60;;;;;;5071115;28;20064;-53
2022/11/24 00:22:38;;;;;;;5.32;0.82;;;20.60;52.50;;;;;;5070080;28;20048;-56
2022/11/24 00:25:06;;;;;;;5.85;1.10;;;20.60;52.50;;;;;;5070021;28;20044;-54
2022/11/24 00:27:33;;;;;;;5.38;0.55;;;20.60;52.60;;;;;;5070303;28;20040;-50
2022/11/24 00:30:00;;;;;;;3.03;0.70;;;20.60;52.60;;;;;;5070310;28;20066;-56
2022/11/24 00:32:29;;;;;;;4.93;0.60;;;20.60;52.60;;;;;;5070194;28;20127;-52
2022/11/24 00:34:56;;;;;;;4.55;0.82;;;20.60;52.70;;;;;;5069042;28;20051;-52
2022/11/24 00:37:23;;;;;;;6.25;0.98;;;20.60;52.70;;;;;;5069875;28;20045;-53
2022/11/24 00:39:50;;;;;;;4.28;0.70;;;20.60;52.80;;;;;;5069859;28;20053;-53
2022/11/24 00:42:17;;;;;;;5.13;0.80;;;20.60;52.80;;;;;;5069965;28;20051;-52
2022/11/24 00:44:44;;;;;;;5.15;0.90;;;20.50;52.80;;;;;;5069605;28;20087;-52
2022/11/24 00:47:11;;;;;;;9.00;1.13;;;20.50;52.80;;;;;;5069741;28;20047;-54
2022/11/24 00:49:40;;;;;;;5.32;0.68;;;20.60;52.80;;;;;;5069285;28;20124;-53
2022/11/24 00:52:06;;;;;;;4.00;0.95;;;20.60;52.80;;;;;;5069377;28;20037;-52
2022/11/24 00:54:34;;;;;;;5.32;0.90;;;20.50;52.80;;;;;;5069755;28;20067;-50
2022/11/24 00:57:01;;;;;;;8.05;0.88;;;20.50;52.70;;;;;;5069386;28;20044;-52
2022/11/24 00:59:28;;;;;;;6.00;0.82;;;20.50;52.80;;;;;;5069784;28;20037;-52
2022/11/24 01:01:55;;;;;;;4.38;1.15;;;20.50;52.80;;;;;;5069152;28;20047;-55
2022/11/24 01:04:22;;;;;;;4.93;0.93;;;20.50;52.80;;;;;;5069278;28;20058;-54
2022/11/24 01:06:50;;;;;;;4.50;1.08;;;20.50;52.80;;;;;;5061320;28;20056;-56
2022/11/24 01:09:17;;;;;;;4.28;0.30;;;20.50;52.80;;;;;;5049481;28;20557;-55
2022/11/24 01:12:03;;;;;;;9.70;1.20;;;20.50;52.80;;;;;;5049196;28;20541;-53
2022/11/24 01:14:32;;;;;;;6.07;0.40;;;20.50;52.70;;;;;;5049902;28;20786;-54
2022/11/24 01:16:59;;;;;;;3.53;0.70;;;20.50;52.80;;;;;;5069329;28;20068;-52
2022/11/24 01:19:26;;;;;;;1.75;0.47;;;20.50;52.80;;;;;;5068182;28;20069;-53
2022/11/24 01:21:54;;;;;;;5.13;0.25;;;20.50;52.80;;;;;;5069148;28;20041;-53
2022/11/24 01:24:22;;;;;;;3.92;0.52;;;20.50;52.70;;;;;;5069196;28;20543;-54
2022/11/24 01:26:48;;;;;;;8.38;0.45;;;20.50;52.70;;;;;;5069217;28;20040;-54
2022/11/24 01:29:15;;;;;;;2.15;0.20;;;20.50;52.70;;;;;;5069210;28;20090;-52
2022/11/24 01:31:42;;;;;;;2.05;1.13;;;20.50;52.80;;;;;;5068846;28;20044;-55
2022/11/24 01:34:10;;;;;;;4.10;0.47;;;20.50;52.80;;;;;;5069110;28;20123;-55
2022/11/24 01:36:36;;;;;;;1.60;0.35;;;20.50;52.80;;;;;;5068672;28;20037;-52
2022/11/24 01:39:06;;;;;;;3.55;0.43;;;20.50;52.80;;;;;;5068612;28;20036;-50
2022/11/24 01:41:34;;;;;;;2.30;0.30;;;20.50;52.90;;;;;;5068644;28;20033;-52
2022/11/24 01:44:01;;;;;;;3.25;0.35;;;20.40;52.90;;;;;;5068667;28;20052;-54
2022/11/24 01:46:33;;;;;;;2.08;0.20;;;20.50;52.90;;;;;;5067404;28;20158;-53
2022/11/24 01:49:09;;;;;;;1.98;0.50;;;20.50;52.90;;;;;;5068739;28;20044;-54
2022/11/24 01:51:40;;;;;;;4.00;0.20;;;20.40;52.90;;;;;;5068556;28;20036;-53
2022/11/24 01:54:11;;;;;;;3.17;0.28;;;20.40;52.90;;;;;;5066415;28;20637;-55
2022/11/24 01:56:41;;;;;;;0.63;0.10;;;20.40;52.90;;;;;;5048452;28;20506;-54
2022/11/24 01:59:13;;;;;;;0.80;0.73;;;20.40;52.90;;;;;;5067671;28;20550;-54
2022/11/24 02:01:40;;;;;;;2.45;0.20;;;20.40;53.10;;;;;;5066852;28;20037;-54
2022/11/24 02:04:12;;;;;;;1.58;0.20;;;20.40;52.80;;;;;;5068456;28;20044;-51
2022/11/24 02:06:42;;;;;;;2.85;0.90;;;20.40;52.90;;;;;;5068445;28;20072;-52
2022/11/24 02:09:16;;;;;;;1.17;0.10;;;20.40;52.90;;;;;;5068271;28;20040;-54
2022/11/24 02:11:44;;;;;;;1.85;0.10;;;20.40;52.90;;;;;;5084477;28;20044;-52
2022/11/24 02:14:13;;;;;;;0.45;0.35;;;20.40;52.90;;;;;;5088608;28;20039;-54
2022/11/24 02:16:42;;;;;;;1.73;0.30;;;20.40;52.90;;;;;;5050970;28;20047;-51
2022/11/24 02:19:18;;;;;;;0.75;0.35;;;20.40;52.90;;;;;;5052530;28;20047;-53
2022/11/24 02:21:45;;;;;;;3.47;0.43;;;20.40;52.90;;;;;;5068151;28;20143;-49
2022/11/24 02:24:22;;;;;;;0.55;0.10;;;20.30;52.90;;;;;;5067948;28;20036;-53
2022/11/24 02:26:51;;;;;;;2.05;0.10;;;20.30;53.40;;;;;;5067891;28;20135;-51
2022/11/24 02:29:19;;;;;;;2.92;0.20;;;20.30;52.90;;;;;;5067818;28;20040;-51
2022/11/24 02:31:51;;;;;;;0.50;0.05;;;20.30;52.90;;;;;;5068019;28;20485;-51
2022/11/24 02:34:18;;;;;;;3.63;0.32;;;20.30;52.90;;;;;;5068051;28;20131;-49
2022/11/24 02:36:45;;;;;;;1.75;0.10;;;20.30;52.90;;;;;;5067758;28;20063;-52
2022/11/24 02:39:13;;;;;;;1.63;0.10;;;20.30;52.90;;;;;;5067712;28;20127;-55
2022/11/24 02:41:44;;;;;;;1.70;0.10;;;20.30;52.90;;;;;;5068084;28;20060;-50
2022/11/24 02:44:15;;;;;;;1.55;0.32;;;20.30;53.00;;;;;;5052494;28;20437;-55
2022/11/24 02:46:42;;;;;;;1.30;0.10;;;20.30;53.00;;;;;;5061787;28;20084;-54
2022/11/24 02:49:09;;;;;;;1.90;0.10;;;20.30;53.60;;;;;;5047902;28;20041;-53
2022/11/24 02:51:36;;;;;;;2.30;0.20;;;20.20;53.00;;;;;;5051456;28;20155;-54
2022/11/24 02:54:03;;;;;;;0.20;0.10;;;20.30;53.10;;;;;;5067572;28;20036;-53
2022/11/24 02:56:30;;;;;;;1.48;0.40;;;20.30;53.10;;;;;;5067952;28;20053;-52
2022/11/24 02:58:57;;;;;;;2.15;0.35;;;20.20;53.00;;;;;;5072201;28;20040;-49
2022/11/24 03:01:26;;;;;;;2.08;0.15;;;20.20;53.10;;;;;;5074441;28;20424;-52
2022/11/24 03:03:53;;;;;;;0.70;0.10;;;20.30;53.10;;;;;;5074437;28;20044;-54
2022/11/24 03:06:20;;;;;;;1.45;0.10;;;20.20;53.00;;;;;;5074263;28;20135;-52
2022/11/24 03:08:46;;;;;;;1.48;0.38;;;20.20;53.00;;;;;;5074601;28;20408;-53
2022/11/24 03:11:14;;;;;;;0.50;0.10;;;20.20;53.10;;;;;;5074324;28;20120;-53
2022/11/24 03:13:40;;;;;;;2.08;0.10;;;20.20;53.00;;;;;;5073958;28;20041;-52
2022/11/24 03:16:09;;;;;;;0.70;0.35;;;20.20;53.10;;;;;;5074180;28;20133;-53
2022/11/24 03:18:37;;;;;;;3.08;0.43;;;20.20;53.10;;;;;;5074149;28;20041;-52
2022/11/24 03:21:05;;;;;;;1.92;0.50;;;20.20;53.00;;;;;;5074299;28;20049;-49
2022/11/24 03:23:32;;;;;;;3.03;0.10;;;20.20;53.10;;;;;;5074122;28;20040;-52
2022/11/24 03:26:07;;;;;;;2.60;0.43;;;20.20;53.00;;;;;;5074128;28;20045;-50
2022/11/24 03:28:34;;;;;;;1.70;0.22;;;20.20;53.00;;;;;;5073610;28;20044;-53
2022/11/24 03:31:01;;;;;;;0.93;0.63;;;20.20;53.00;;;;;;5074295;28;20106;-55
2022/11/24 03:33:29;;;;;;;1.38;0.20;;;20.20;53.10;;;;;;5056315;28;20041;-55
2022/11/24 03:35:57;;;;;;;1.20;0.10;;;20.20;53.10;;;;;;5054074;28;20041;-53
2022/11/24 03:38:24;;;;;;;3.00;0.10;;;20.20;53.10;;;;;;5054376;28;20139;-55
2022/11/24 03:40:51;;;;;;;0.82;0.10;;;20.20;53.10;;;;;;5054281;28;20045;-56
2022/11/24 03:43:19;;;;;;;1.00;0.10;;;20.20;53.10;;;;;;5053478;28;20123;-52
2022/11/24 03:45:47;;;;;;;4.55;0.20;;;20.20;53.10;;;;;;5064826;28;20043;-54
2022/11/24 03:48:15;;;;;;;1.05;0.10;;;20.20;53.20;;;;;;5074009;28;20048;-54
2022/11/24 03:50:42;;;;;;;0.88;0.35;;;20.20;53.20;;;;;;5074669;28;20055;-54
2022/11/24 03:53:11;;;;;;;2.72;0.30;;;20.10;53.10;;;;;;5074362;28;20047;-53
2022/11/24 03:55:38;;;;;;;2.67;0.30;;;20.10;53.10;;;;;;5074623;28;20044;-54
2022/11/24 03:58:05;;;;;;;3.53;0.63;;;20.20;53.20;;;;;;5074091;28;20398;-52
2022/11/24 04:00:32;;;;;;;2.08;0.40;;;20.10;53.00;;;;;;5074503;28;20040;-54
2022/11/24 04:02:59;;;;;;;1.40;0.10;;;20.10;53.00;;;;;;5074997;28;20119;-55
2022/11/24 04:05:26;;;;;;;1.52;0.38;;;20.20;53.10;;;;;;5074197;28;20051;-52
2022/11/24 04:07:55;;;;;;;1.30;0.20;;;20.10;53.00;;;;;;5074362;28;20059;-51
2022/11/24 04:10:24;;;;;;;1.38;0.10;;;20.10;53.00;;;;;;5077712;28;20039;-52
2022/11/24 04:12:50;;;;;;;1.05;0.10;;;20.10;53.00;;;;;;5091831;28;20047;-52
2022/11/24 04:15:19;;;;;;;1.67;0.20;;;20.10;53.00;;;;;;5077540;28;20484;-51
2022/11/24 04:17:48;;;;;;;3.13;0.20;;;20.10;53.00;;;;;;5051549;28;20391;-55
2022/11/24 04:20:16;;;;;;;1.17;0.15;;;20.10;53.00;;;;;;5051108;28;20045;-49
2022/11/24 04:22:43;;;;;;;1.73;0.10;;;20.10;53.10;;;;;;5053330;28;20036;-52
2022/11/24 04:25:11;;;;;;;0.50;0.10;;;20.10;53.00;;;;;;5050548;28;20045;-52
2022/11/24 04:27:39;;;;;;;1.75;0.17;;;20.10;53.10;;;;;;5049802;28;20045;-52
2022/11/24 04:30:08;;;;;;;3.65;0.20;;;20.10;53.00;;;;;;5051100;28;20048;-53
2022/11/24 04:32:35;;;;;;;1.13;0.13;;;20.10;53.00;;;;;;5049776;28;20077;-51
2022/11/24 04:35:02;;;;;;;2.03;0.10;;;20.10;53.00;;;;;;5051091;28;20056;-50
2022/11/24 04:37:29;;;;;;;1.27;0.00;;;20.10;53.00;;;;;;5052387;28;20044;-50
2022/11/24 04:39:56;;;;;;;1.25;0.15;;;20.10;53.10;;;;;;5059392;28;20045;-50
2022/11/24 04:42:23;;;;;;;3.05;0.10;;;20.10;53.00;;;;;;5051007;28;20055;-52
2022/11/24 04:44:51;;;;;;;2.72;0.55;;;20.10;53.10;;;;;;5053890;28;20076;-50
2022/11/24 04:47:23;;;;;;;2.92;0.73;;;20.10;53.10;;;;;;5070591;28;20040;-55
2022/11/24 04:49:51;;;;;;;2.83;0.10;;;20.10;53.10;;;;;;5070615;28;20153;-54
2022/11/24 04:52:19;;;;;;;2.65;0.40;;;20.10;53.10;;;;;;5070517;28;20128;-54
2022/11/24 04:54:46;;;;;;;2.22;0.10;;;20.10;53.10;;;;;;5070070;28;20110;-54
2022/11/24 04:57:17;;;;;;;4.75;0.10;;;20.00;53.00;;;;;;5070465;28;20425;-50
2022/11/24 04:59:44;;;;;;;4.35;0.20;;;20.10;53.10;;;;;;5070414;28;20116;-56
2022/11/24 05:02:13;;;;;;;1.75;0.35;;;20.10;53.00;;;;;;5070504;28;20040;-55
2022/11/24 05:04:40;;;;;;;0.30;0.10;;;20.10;53.00;;;;;;5070473;28;20120;-56
2022/11/24 05:07:07;;;;;;;1.10;0.10;;;20.00;53.00;;;;;;5070269;28;20049;-53
2022/11/24 05:10:33;;;;;;;3.75;0.43;;;20.00;53.00;;;;;;5058430;28;20037;-55
2022/11/24 05:12:21;;;;;;;0.90;0.10;;;20.00;52.90;;;;;;5050427;28;20123;-53
2022/11/24 05:14:48;;;;;;;0.63;0.10;;;20.00;53.00;;;;;;5053167;28;20509;-53
2022/11/24 05:17:16;;;;;;;0.90;0.30;;;20.00;52.90;;;;;;5070005;28;20119;-52
2022/11/24 05:19:43;;;;;;;1.80;0.30;;;20.00;53.00;;;;;;5070148;28;20055;-52
2022/11/24 05:22:10;;;;;;;4.07;0.55;;;20.00;52.90;;;;;;5069857;28;20076;-52
2022/11/24 05:24:37;;;;;;;2.30;0.15;;;20.00;52.90;;;;;;5069637;28;20040;-51
2022/11/24 05:27:04;;;;;;;1.75;0.20;;;20.00;52.90;;;;;;5070138;28;20606;-53
2022/11/24 05:29:31;;;;;;;2.38;0.20;;;20.00;52.90;;;;;;5070004;28;20046;-55
2022/11/24 05:31:58;;;;;;;1.35;0.57;;;20.00;53.50;;;;;;5069717;28;20540;-54
2022/11/24 05:34:27;;;;;;;1.02;0.20;;;20.00;53.00;;;;;;5069815;28;20048;-53
2022/11/24 05:36:55;;;;;;;2.28;0.20;;;20.00;53.00;;;;;;5069479;28;20049;-54
2022/11/24 05:39:22;;;;;;;1.70;0.10;;;20.00;53.00;;;;;;5069093;28;20040;-52
2022/11/24 05:41:49;;;;;;;1.80;0.10;;;20.00;53.00;;;;;;5069691;28;20044;-51
2022/11/24 05:44:16;;;;;;;3.20;0.20;;;20.00;53.00;;;;;;5069577;28;20820;-52
2022/11/24 05:46:43;;;;;;;4.25;0.20;;;20.00;52.90;;;;;;5069330;28;20082;-54
2022/11/24 05:49:10;;;;;;;1.55;0.20;;;20.00;52.90;;;;;;5069450;28;20048;-55
2022/11/24 05:51:38;;;;;;;1.38;0.10;;;20.00;52.90;;;;;;5069310;28;20045;-53
2022/11/24 05:54:05;;;;;;;2.00;0.10;;;20.00;52.90;;;;;;5068847;28;20054;-56
2022/11/24 05:56:32;;;;;;;0.52;0.10;;;20.00;53.00;;;;;;5066482;28;20048;-53
2022/11/24 05:58:59;;;;;;;2.97;0.20;;;20.00;53.00;;;;;;5065954;28;20455;-50
2022/11/24 06:01:26;;;;;;;3.80;0.47;;;20.00;53.00;;;;;;5069237;28;20064;-54
2022/11/24 06:03:54;;;;;;;0.70;0.20;;;20.00;53.00;;;;;;5068973;28;20040;-54
2022/11/24 06:06:21;;;;;;;1.95;0.65;;;20.00;53.00;;;;;;5069094;28;20040;-55
2022/11/24 06:08:49;;;;;;;1.33;0.32;;;20.00;53.10;;;;;;5069215;28;20053;-52
2022/11/24 06:11:19;;;;;;;3.22;0.20;;;20.00;53.00;;;;;;5068961;28;20056;-54
2022/11/24 06:13:48;;;;;;;2.35;0.10;;;20.00;53.00;;;;;;5068652;28;20908;-54
2022/11/24 06:16:15;;;;;;;2.58;1.58;;;20.00;53.00;;;;;;5069205;28;20409;-55
2022/11/24 06:18:42;;;;;;;3.80;0.47;;;20.00;53.00;;;;;;5086738;28;20048;-54
2022/11/24 06:21:09;;;;;;;3.65;0.40;;;20.00;53.00;;;;;;5088584;28;20506;-53
2022/11/24 06:23:37;;;;;;;0.85;0.10;;;20.00;53.00;;;;;;5089013;28;20046;-51
2022/11/24 06:26:06;;;;;;;0.73;0.00;;;20.00;53.00;;;;;;5088792;28;20052;-55
2022/11/24 06:28:33;;;;;;;1.27;0.10;;;20.00;53.00;;;;;;5088960;28;20044;-54
2022/11/24 06:31:01;;;;;;;1.60;0.40;;;20.00;53.00;;;;;;5089150;28;20111;-56
2022/11/24 06:33:32;;;;;;;1.63;0.38;;;20.00;52.90;;;;;;5088262;28;20043;-54
2022/11/24 06:36:02;;;;;;;2.35;0.35;;;20.00;52.90;;;;;;5088296;28;20044;-54
2022/11/24 06:38:29;;;;;;;1.73;0.10;;;20.00;53.00;;;;;;5088488;28;20056;-55
2022/11/24 06:41:01;;;;;;;0.95;0.20;;;20.00;53.00;;;;;;5088721;28;20048;-53
2022/11/24 06:43:30;;;;;;;5.47;0.30;;;20.00;53.00;;;;;;5088852;28;20101;-55
2022/11/24 06:45:57;;;;;;;2.15;0.20;;;20.00;53.00;;;;;;5063262;28;20041;-53
2022/11/24 06:48:25;;;;;;;4.45;0.65;;;19.90;53.00;;;;;;5046923;28;20073;-53
2022/11/24 06:50:53;;;;;;;3.08;0.38;;;20.00;53.10;;;;;;5055997;28;20219;-52
2022/11/24 06:53:20;;;;;;;2.72;0.25;;;20.00;53.10;;;;;;5050548;28;20081;-53
2022/11/24 06:55:47;;;;;;;1.77;0.10;;;20.00;53.10;;;;;;5048298;28;20437;-54
2022/11/24 06:58:14;;;;;;;5.72;0.38;;;20.00;53.20;;;;;;5058589;28;20080;-54
2022/11/24 07:00:42;;;;;;;1.52;0.77;;;20.00;53.20;;;;;;5068165;28;20044;-54
2022/11/24 07:03:15;;;;;;;1.98;0.47;;;20.00;53.20;;;;;;5067949;28;20062;-53
2022/11/24 07:05:43;;;;;;;1.63;0.20;;;20.00;53.20;;;;;;5067891;28;20041;-51
2022/11/24 07:08:10;;;;;;;3.20;0.63;;;20.00;53.20;;;;;;5066589;28;20041;-66
2022/11/24 07:10:37;;;;;;;5.32;0.75;;;20.00;53.20;;;;;;5050781;28;20582;-48
2022/11/24 07:13:07;;;;;;;5.38;0.40;;;20.00;53.00;;;;;;5058480;28;20041;-47
2022/11/24 07:15:34;;;;;;;3.33;1.52;;;20.10;53.30;;;;;;5063969;28;20037;-47
2022/11/24 07:18:02;;;;;;;9.38;0.77;;;20.10;53.30;;;;;;5064328;28;20045;-46
2022/11/24 07:20:29;;;;;;;4.72;0.63;;;20.20;53.50;;;;;;5067523;28;20115;-48
2022/11/24 07:22:57;;;;;;;3.33;0.57;;;20.30;53.50;;;;;;5067929;28;20052;-47
2022/11/24 07:25:24;;;;;;;5.20;1.02;;;20.30;53.40;;;;;;5067579;28;20393;-49
2022/11/24 07:27:56;;;;;;;2.63;1.00;;;20.40;53.50;;;;;;5052290;28;20049;-48
2022/11/24 07:30:23;;;;;;;8.38;2.88;;;20.40;53.50;;;;;;5067645;28;20045;-47
2022/11/24 07:32:50;;;;;;;10.60;4.20;;;20.50;53.50;;;;;;5065865;28;20049;-43
2022/11/24 07:35:18;;;;;;;13.40;4.95;;;20.60;53.30;;;;;;5063817;28;20057;-43
2022/11/24 07:37:45;;;;;;;14.70;4.97;;;20.60;53.20;;;;;;5051471;28;20119;-49
2022/11/24 07:40:12;;;;;;;12.95;5.80;;;20.60;53.00;;;;;;5067593;28;20108;-51
2022/11/24 07:42:39;;;;;;;13.77;5.50;;;20.60;52.90;;;;;;5062750;28;20033;-48
2022/11/24 07:45:07;;;;;;;11.27;5.70;;;20.70;52.70;;;;;;5062286;28;20568;-51
2022/11/24 07:47:39;;;;;;;13.00;5.93;;;20.80;52.60;;;;;;5071275;28;20068;-48
2022/11/24 07:50:08;;;;;;;13.88;5.45;;;20.80;52.50;;;;;;5070735;28;20163;-53
2022/11/24 07:52:36;;;;;;;13.75;5.72;;;20.80;52.30;;;;;;5071004;28;20144;-55
2022/11/24 07:55:04;;;;;;;10.80;4.95;;;20.90;52.30;;;;;;5066456;28;20049;-50
2022/11/24 07:57:31;;;;;;;9.68;3.97;;;20.90;52.20;;;;;;5068261;28;20394;-48
2022/11/24 07:59:58;;;;;;;7.95;4.05;;;20.90;52.10;;;;;;5071098;28;20044;-49
2022/11/24 08:02:25;;;;;;;14.15;5.28;;;21.00;52.10;;;;;;5070642;28;20052;-47
2022/11/24 08:04:52;;;;;;;11.20;4.53;;;21.10;51.90;;;;;;5071198;28;20416;-48
2022/11/24 08:07:19;;;;;;;12.25;4.63;;;21.10;51.80;;;;;;5070482;28;20413;-56
2022/11/24 08:09:49;;;;;;;8.90;3.92;;;21.10;51.70;;;;;;5071434;28;20052;-52
2022/11/24 08:12:20;;;;;;;7.15;4.30;;;21.10;51.60;;;;;;5066239;28;20041;-56
2022/11/24 08:14:48;;;;;;;11.80;4.88;;;21.20;51.60;;;;;;5063052;28;20137;-53
2022/11/24 08:17:15;;;;;;;9.52;3.85;;;21.20;51.50;;;;;;5065122;28;20044;-53
2022/11/24 08:19:42;;;;;;;10.70;4.15;;;21.20;51.30;;;;;;5066105;28;20462;-52
2022/11/24 08:22:10;;;;;;;16.10;3.33;;;21.20;51.30;;;;;;5053777;28;20375;-62
2022/11/24 08:24:37;;;;;;;12.35;2.75;;;21.30;51.30;;;;;;5061573;28;20127;-52
2022/11/24 08:27:05;;;;;;;6.65;2.47;;;21.30;51.30;;;;;;5070731;28;20413;-51
2022/11/24 08:29:32;;;;;;;6.07;3.50;;;21.30;51.30;;;;;;5070691;28;20048;-48
2022/11/24 08:31:59;;;;;;;5.35;3.05;;;21.40;51.30;;;;;;5069030;28;20413;-52
2022/11/24 08:34:26;;;;;;;6.40;2.50;;;21.40;51.20;;;;;;5070589;28;20049;-54
2022/11/24 08:36:53;;;;;;;6.20;2.85;;;21.40;51.20;;;;;;5070174;28;20037;-57
2022/11/24 08:39:20;;;;;;;5.10;1.55;;;21.50;51.10;;;;;;5070290;28;20086;-58
2022/11/24 08:41:48;;;;;;;9.30;2.88;;;21.50;51.00;;;;;;5070510;28;20493;-55
2022/11/24 08:44:17;;;;;;;6.93;1.63;;;21.50;50.90;;;;;;5062673;28;20116;-48
2022/11/24 08:46:59;;;;;;;6.53;2.60;;;21.60;50.90;;;;;;5063844;28;20064;-51
2022/11/24 08:49:26;;;;;;;6.10;2.03;;;21.60;50.90;;;;;;5070175;28;20043;-54
2022/11/24 08:51:53;;;;;;;4.32;1.65;;;21.60;50.80;;;;;;5069908;28;20044;-46
2022/11/24 08:54:20;;;;;;;6.38;1.55;;;21.60;50.70;;;;;;5068868;28;20146;-48
2022/11/24 08:56:49;;;;;;;6.97;1.30;;;21.70;50.70;;;;;;5057227;28;20583;-48
2022/11/24 08:59:18;;;;;;;4.43;2.05;;;21.70;50.60;;;;;;5068956;28;20040;-46
2022/11/24 09:01:45;;;;;;;4.57;1.30;;;21.80;50.60;;;;;;5048611;28;20512;-55
2022/11/24 09:04:12;;;;;;;3.83;1.20;;;21.80;50.50;;;;;;5057692;28;20123;-57
2022/11/24 09:06:39;;;;;;;4.53;0.85;;;21.80;50.40;;;;;;5069503;28;20036;-55
2022/11/24 09:09:06;;;;;;;4.20;0.82;;;21.80;50.30;;;;;;5069298;28;20047;-57
2022/11/24 09:11:34;;;;;;;4.93;0.63;;;21.90;50.30;;;;;;5068002;28;20508;-54
2022/11/24 09:14:01;;;;;;;4.40;0.95;;;21.90;50.20;;;;;;5069873;28;20064;-55
2022/11/24 09:16:29;;;;;;;4.97;0.68;;;21.90;50.20;;;;;;5069514;28;20580;-55
2022/11/24 09:18:58;;;;;;;5.18;0.55;;;22.00;50.20;;;;;;5064095;28;20055;-58
2022/11/24 09:21:25;;;;;;;4.43;0.73;;;21.90;50.00;;;;;;5069475;28;20041;-58
2022/11/24 09:23:54;;;;;;;4.00;0.65;;;22.00;50.00;;;;;;5069631;28;20071;-49
2022/11/24 09:26:23;;;;;;;3.13;1.10;;;22.00;50.00;;;;;;5069872;28;20087;-53
2022/11/24 09:28:53;;;;;;;2.35;1.17;;;22.00;50.00;;;;;;5069525;28;20136;-47
2022/11/24 09:31:22;;;;;;;4.57;0.55;;;22.00;50.00;;;;;;5069219;28;20048;-52
2022/11/24 09:33:51;;;;;;;3.80;0.45;;;22.10;50.00;;;;;;5069490;28;20051;-48
2022/11/24 09:36:18;;;;;;;5.72;1.75;;;22.10;49.90;;;;;;5069306;28;20040;-58
2022/11/24 09:38:45;;;;;;;3.45;0.57;;;22.10;49.80;;;;;;5069003;28;20048;-56
2022/11/24 09:41:47;;;;;;;1.48;0.20;;;22.20;49.80;;;;;;5065788;28;20127;-58
2022/11/24 09:44:53;;;;;;;1.20;0.35;;;22.20;49.70;;;;;;5053744;28;20048;-55
2022/11/24 09:47:27;;;;;;;2.90;0.77;;;22.30;49.70;;;;;;4984115;28;20046;-60
2022/11/24 09:50:00;;;;;;;4.10;0.75;;;22.30;49.80;;;;;;4987021;28;20093;-62
2022/11/24 09:52:39;;;;;;;1.85;0.52;;;22.30;49.70;;;;;;4986975;28;20085;-61
2022/11/24 09:55:23;;;;;;;6.18;0.52;;;22.40;49.60;;;;;;4987340;28;20814;-61
2022/11/24 09:57:56;;;;;;;4.60;0.50;;;22.40;49.50;;;;;;4974572;28;20042;-61
2022/11/24 10:00:23;;;;;;;3.97;0.52;;;22.40;49.50;;;;;;4985788;28;20051;-60
2022/11/24 10:02:50;;;;;;;5.13;0.20;;;22.40;49.50;;;;;;4967726;28;20141;-58
2022/11/24 10:05:19;;;;;;;4.18;0.52;;;22.50;49.50;;;;;;4983449;28;20047;-57
2022/11/24 10:07:58;;;;;;;3.35;0.88;;;22.50;49.40;;;;;;4986211;28;20050;-59
2022/11/24 10:10:28;;;;;;;6.20;1.08;;;22.60;50.00;;;;;;4981281;28;20054;-61
2022/11/24 10:13:07;;;;;;;3.78;0.30;;;22.60;47.80;;;;;;4980574;28;20188;-62
2022/11/24 10:15:44;;;;;;;8.30;1.42;;;22.40;45.90;;;;;;4986898;28;20499;-62
2022/11/24 10:18:31;;;;;;;4.80;0.20;;;22.10;45.50;;;;;;5012455;28;20139;-60
2022/11/24 10:21:12;;;;;;;14.50;1.13;;;21.70;45.60;;;;;;5068938;28;20102;-59
2022/11/24 10:23:58;;;;;;;5.80;0.45;;;21.50;45.70;;;;;;5068499;28;20408;-60
2022/11/24 10:26:34;;;;;;;3.08;0.45;;;21.40;45.80;;;;;;5068993;28;20467;-59
2022/11/24 10:29:08;;;;;;;7.68;1.00;;;21.20;46.00;;;;;;5068872;28;20052;-61
2022/11/24 10:31:37;;;;;;;6.18;0.40;;;21.00;45.70;;;;;;5067055;28;20581;-62
2022/11/24 10:34:14;;;;;;;6.55;0.60;;;20.80;45.50;;;;;;5067225;28;20106;-62
2022/11/24 10:36:50;;;;;;;28.42;3.60;;;20.60;45.70;;;;;;5068359;28;20048;-62
2022/11/24 10:39:23;;;;;;;24.25;2.30;;;20.40;47.10;;;;;;5068294;28;20048;-55
2022/11/24 10:41:56;;;;;;;4.93;0.38;;;20.20;47.40;;;;;;5054537;28;20043;-57
2022/11/24 10:44:24;;;;;;;4.47;1.00;;;20.10;47.90;;;;;;5068038;28;20060;-57
2022/11/24 10:46:51;;;;;;;9.05;0.73;;;20.10;48.00;;;;;;5068258;28;20051;-57
2022/11/24 10:49:22;;;;;;;10.35;0.73;;;20.10;47.80;;;;;;5067999;28;20123;-58
2022/11/24 10:52:00;;;;;;;3.70;0.65;;;20.10;47.90;;;;;;5068689;28;20103;-60
2022/11/24 10:54:28;;;;;;;4.53;0.20;;;20.10;47.50;;;;;;5063347;28;20143;-62
2022/11/24 10:56:55;;;;;;;5.22;0.47;;;20.10;48.30;;;;;;5061472;28;20052;-60
2022/11/24 10:59:35;;;;;;;9.85;1.30;;;20.20;48.90;;;;;;5060785;28;20051;-54
2022/11/24 11:02:03;;;;;;;6.25;0.88;;;20.40;49.30;;;;;;5059059;28;20067;-53
2022/11/24 11:04:32;;;;;;;2.42;0.52;;;20.50;49.60;;;;;;5066958;28;20516;-57
2022/11/24 11:07:17;;;;;;;4.32;0.90;;;20.70;49.80;;;;;;5067908;28;20047;-51
2022/11/24 11:09:44;;;;;;;0.80;0.28;;;20.90;49.70;;;;;;5067260;28;20174;-57
2022/11/24 11:12:18;;;;;;;4.10;0.30;;;21.00;49.70;;;;;;5055079;28;20883;-56
2022/11/24 11:14:46;;;;;;;8.07;0.30;;;21.20;49.80;;;;;;5066480;28;20045;-55
2022/11/24 11:17:33;;;;;;;5.38;0.35;;;21.30;49.60;;;;;;5068056;28;20048;-51
2022/11/24 11:20:06;;;;;;;3.17;0.38;;;21.50;49.60;;;;;;5056603;28;20097;-52
2022/11/24 11:22:37;;;;;;;8.70;0.30;;;21.60;49.70;;;;;;5071969;28;20036;-54
2022/11/24 11:25:19;;;;;;;2.42;0.30;;;21.70;49.60;;;;;;5071901;28;20048;-55
2022/11/24 11:27:47;;;;;;;13.02;0.52;;;21.90;49.60;;;;;;5070606;28;20098;-56
2022/11/24 11:30:20;;;;;;;2.50;0.25;;;21.90;49.40;;;;;;5064568;28;20049;-55
2022/11/24 11:32:53;;;;;;;3.70;1.02;;;22.00;49.40;;;;;;5064046;28;20048;-53
2022/11/24 11:35:22;;;;;;;1.83;0.40;;;22.10;49.30;;;;;;5071777;28;20041;-52
2022/11/24 11:37:52;;;;;;;3.88;0.20;;;22.20;49.30;;;;;;5071785;28;20040;-56
2022/11/24 11:40:24;;;;;;;6.63;0.77;;;22.30;49.30;;;;;;5071194;28;20528;-54
2022/11/24 11:42:59;;;;;;;2.88;0.90;;;22.40;49.20;;;;;;5066945;28;20054;-52
2022/11/24 11:45:30;;;;;;;8.02;0.55;;;22.50;49.10;;;;;;5071536;28;20420;-55
2022/11/24 11:48:07;;;;;;;4.82;0.30;;;22.60;49.10;;;;;;5071636;28;20040;-55
2022/11/24 11:50:41;;;;;;;4.57;0.20;;;22.70;49.00;;;;;;5071416;28;20474;-56
2022/11/24 11:53:22;;;;;;;3.80;0.55;;;22.80;48.90;;;;;;5071325;28;20044;-58
2022/11/24 11:55:58;;;;;;;6.45;0.63;;;22.90;48.80;;;;;;5055547;28;20041;-53
2022/11/24 11:58:53;;;;;;;5.65;0.40;;;22.90;48.80;;;;;;5071165;28;20036;-56
2022/11/24 12:01:46;;;;;;;6.88;0.28;;;23.00;48.70;;;;;;5071331;28;20550;-53
2022/11/24 12:04:20;;;;;;;3.03;0.15;;;23.10;48.80;;;;;;5071234;28;20072;-53
2022/11/24 12:07:05;;;;;;;1.70;0.20;;;23.20;48.90;;;;;;5071015;28;20068;-54
2022/11/24 12:09:45;;;;;;;3.90;0.63;;;23.20;48.80;;;;;;5072328;28;20060;-56
2022/11/24 12:12:36;;;;;;;1.65;0.35;;;23.30;48.80;;;;;;5058236;28;20424;-55
2022/11/24 12:15:15;;;;;;;3.10;0.40;;;23.40;48.70;;;;;;5066092;28;20036;-52
2022/11/24 12:17:51;;;;;;;4.82;0.52;;;23.40;48.60;;;;;;5070811;28;20102;-57
2022/11/24 12:20:32;;;;;;;2.13;0.30;;;23.50;48.60;;;;;;5071090;28;20505;-56
2022/11/24 12:23:04;;;;;;;1.02;0.38;;;23.60;48.60;;;;;;5071080;28;20127;-56
2022/11/24 12:25:38;;;;;;;2.05;0.30;;;23.60;48.60;;;;;;5070458;28;20048;-53
2022/11/24 12:28:19;;;;;;;2.40;0.20;;;23.70;48.50;;;;;;5070839;28;20083;-57
2022/11/24 12:30:58;;;;;;;4.85;0.22;;;23.80;48.40;;;;;;5069755;28;20052;-56
2022/11/24 12:33:44;;;;;;;3.20;0.30;;;23.90;48.30;;;;;;5070671;28;20052;-57
2022/11/24 12:36:23;;;;;;;5.30;0.67;;;23.90;48.10;;;;;;5070595;28;20044;-56
2022/11/24 12:38:59;;;;;;;0.95;0.20;;;24.00;48.10;;;;;;5070495;28;20584;-56
2022/11/24 12:41:37;;;;;;;;;;;24.00;48.00;;;;;;5066053;28;20127;-54
2022/11/24 12:44:11;;;;;;;1.52;0.30;;;24.00;48.00;;;;;;5070574;28;20407;-52
2022/11/24 12:46:47;;;;;;;1.42;0.57;;;24.10;48.00;;;;;;5070615;28;20437;-56
2022/11/24 12:49:26;;;;;;;3.90;0.68;;;24.10;47.80;;;;;;5070365;28;20052;-55
2022/11/24 12:51:59;;;;;;;1.60;0.28;;;24.20;47.70;;;;;;5070459;28;20044;-55
2022/11/24 12:54:31;;;;;;;3.67;0.75;;;24.20;47.50;;;;;;5069871;28;20527;-55
2022/11/24 12:57:07;;;;;;;2.70;0.35;;;24.30;47.30;;;;;;5070438;28;20519;-52
2022/11/24 12:59:42;;;;;;;2.30;0.52;;;24.30;47.10;;;;;;5070280;28;20153;-53